Novgorod, Russia
Current Conditions -  °F | °C
As of 10:30 PM on Thursday 18 Dec 2014 (Local Time) from ULLI Reporting Station
Overcast Overcast  
Wind Chill: 26°   Ceiling: 1600
Heat Index: 32°   Visibility: 6mi
Dew Point: 28°   Wind: 7mph
Humidity: 87%   Direction: 140°SE
Pressure: 29.53"   Gusts: NA
Location:  58.55°N, 31.28°E
Report Text: ULLI 181930Z 14003MPS 9999 BKN016 OVC066 M00/M02 Q1000 28//////78290050 NOSIG
Loading
Personal Weather Stations






























Interactive Weather Map New forecast layout! Learn more

10-Day Weather Forecast

Advertisements
Track Severe Weather on mobile